createdAt,value
2023-04-07T00:00:46.958Z,99963.78
2023-04-07T00:03:14.695Z,99957.06
2023-04-07T00:05:42.405Z,99955.19
2023-04-07T00:08:09.978Z,99963.59
2023-04-07T00:10:37.604Z,99960.06
2023-04-07T00:13:06.486Z,99948.13
2023-04-07T00:15:34.208Z,99953.25
2023-04-07T00:18:01.872Z,99954.66
2023-04-07T00:20:29.578Z,99952.13
2023-04-07T00:22:57.136Z,99959.69
2023-04-07T00:25:24.738Z,99950.41
2023-04-07T00:27:52.305Z,99944.41
2023-04-07T00:30:21.675Z,99944.41
2023-04-07T00:32:49.309Z,99940.94
2023-04-07T00:35:16.924Z,99941.69
2023-04-07T00:37:44.612Z,99939.78
2023-04-07T00:40:12.868Z,99931.22
2023-04-07T00:42:41.637Z,99925.34
2023-04-07T00:45:11.427Z,99925.34
2023-04-07T00:47:40.596Z,99916.72
2023-04-07T00:50:09.330Z,99909.06
2023-04-07T00:52:37.281Z,99907.41
2023-04-07T00:55:05.159Z,99899.72
2023-04-07T00:57:32.760Z,99903.19
2023-04-07T01:00:00.436Z,99898.78
2023-04-07T01:02:34.924Z,99903.91
2023-04-07T01:05:14.081Z,99897.94
2023-04-07T01:07:53.673Z,99900.59
2023-04-07T01:10:28.856Z,99894.69
2023-04-07T01:13:07.565Z,99888.72
2023-04-07T01:15:36.160Z,99877.69
2023-04-07T01:18:11.610Z,99876.88
2023-04-07T01:20:41.400Z,99882.06
2023-04-07T01:23:09.733Z,99880.38
2023-04-07T01:26:00.884Z,99877.97
2023-04-07T01:28:57.268Z,99877.16
2023-04-07T01:31:27.584Z,99865.25
2023-04-07T01:38:08.190Z,99871.94
2023-04-07T01:40:37.414Z,99864.25
2023-04-07T01:43:05.756Z,99869.25
2023-04-07T01:45:36.661Z,99866.69
2023-04-07T01:48:07.357Z,99860.66
2023-04-07T01:50:35.652Z,99860.66
2023-04-07T01:53:04.770Z,99846.16
2023-04-07T01:55:33.189Z,99852.16
2023-04-07T01:58:06.259Z,99843.56
2023-04-07T02:00:35.238Z,99840.00
2023-04-07T02:03:20.870Z,99843.44
2023-04-07T02:05:51.111Z,99839.97
2023-04-07T02:08:22.738Z,99838.09
2023-04-07T02:10:52.629Z,99836.47
2023-04-07T02:13:21.776Z,99835.59
2023-04-07T02:15:51.485Z,99837.28
2023-04-07T02:18:21.633Z,99833.84
2023-04-07T02:20:51.626Z,99828.84
2023-04-07T02:23:19.241Z,99834.84
2023-04-07T02:25:46.882Z,99839.97
2023-04-07T02:28:14.500Z,99833.91
2023-04-07T02:30:42.063Z,99833.09
2023-04-07T02:33:09.687Z,99833.84
2023-04-07T02:35:38.633Z,99836.38
2023-04-07T02:42:18.644Z,99819.16
2023-04-07T02:44:46.288Z,99814.88
2023-04-07T02:47:13.824Z,99818.38
2023-04-07T02:49:41.493Z,99817.50
2023-04-07T02:52:10.502Z,99810.63
2023-04-07T02:54:38.135Z,99809.72
2023-04-07T02:57:05.922Z,99813.19
2023-04-07T03:08:48.484Z,99799.97
2023-04-07T03:11:17.443Z,99798.25
2023-04-07T03:13:46.070Z,99794.88
2023-04-07T03:16:15.884Z,99795.72
2023-04-07T03:18:56.631Z,99793.16
2023-04-07T03:21:24.729Z,99793.13
2023-04-07T03:23:52.517Z,99790.41
2023-04-07T03:26:22.374Z,99789.53
2023-04-07T03:28:51.070Z,99793.00
2023-04-07T03:31:20.040Z,99791.34
2023-04-07T03:33:50.547Z,99789.63
2023-04-07T03:36:19.263Z,99787.88
2023-04-07T03:38:48.667Z,99789.53
2023-04-07T03:41:18.348Z,99793.72
2023-04-07T03:43:47.324Z,99791.97
2023-04-07T03:46:15.824Z,99787.69
2023-04-07T03:48:44.100Z,99794.53
2023-04-07T03:51:12.106Z,99787.69
2023-04-07T03:53:41.263Z,99792.75
2023-04-07T03:56:24.704Z,99795.19
2023-04-07T03:58:53.654Z,99787.34
2023-04-07T04:01:27.920Z,99787.28
2023-04-07T04:03:58.397Z,99791.41
2023-04-07T04:06:31.322Z,99787.75
2023-04-07T04:09:07.207Z,99796.25
2023-04-07T04:11:38.263Z,99783.34
2023-04-07T04:14:07.907Z,99783.22
2023-04-07T04:16:37.323Z,99786.50
2023-04-07T04:19:11.406Z,99783.88
2023-04-07T04:21:39.006Z,99788.91
2023-04-07T04:24:06.914Z,99791.38
2023-04-07T04:26:34.564Z,99786.09
2023-04-07T04:29:10.596Z,99785.19
2023-04-07T04:31:39.612Z,99789.44
2023-04-07T04:34:08.170Z,99796.91
2023-04-07T04:36:38.322Z,99787.56
2023-04-07T04:39:06.961Z,99791.09
2023-04-07T04:41:36.197Z,99803.06
2023-04-07T04:44:04.258Z,99799.69
2023-04-07T04:46:34.489Z,99791.31
2023-04-07T04:49:02.177Z,99790.47
2023-04-07T04:51:31.148Z,99798.91
2023-04-07T04:54:06.263Z,99804.78
2023-04-07T04:56:35.707Z,99796.28
2023-04-07T04:59:05.814Z,99804.78
2023-04-07T05:01:46.783Z,99804.66
2023-04-07T05:04:17.988Z,99805.66
2023-04-07T05:06:52.078Z,99797.22
2023-04-07T05:09:22.809Z,99791.31
2023-04-07T05:11:51.497Z,99804.00
2023-04-07T05:14:19.333Z,99802.28
2023-04-07T05:16:55.202Z,99801.53
2023-04-07T05:19:29.527Z,99804.13
2023-04-07T05:22:02.302Z,99805.84
2023-04-07T05:24:33.028Z,99806.66
2023-04-07T05:27:02.215Z,99808.44
2023-04-07T05:29:31.582Z,99818.72
2023-04-07T05:32:01.445Z,99803.50
2023-04-07T05:34:31.310Z,99807.13
2023-04-07T05:36:58.986Z,99806.34
2023-04-07T05:39:27.105Z,99809.78
2023-04-07T05:41:57.277Z,99809.19
2023-04-07T05:44:27.279Z,99812.63
2023-04-07T05:46:55.925Z,99814.41
2023-04-07T05:49:27.712Z,99821.25
2023-04-07T05:52:05.828Z,99813.84
2023-04-07T05:54:36.584Z,99819.94
2023-04-07T05:57:06.032Z,99816.06
2023-04-07T05:59:34.071Z,99824.97
2023-04-07T06:02:02.269Z,99822.47
2023-04-07T06:04:33.966Z,99814.94
2023-04-07T06:07:01.695Z,99819.16
2023-04-07T06:09:29.315Z,99818.28
2023-04-07T06:11:57.635Z,99819.25
2023-04-07T06:14:27.273Z,99815.09
2023-04-07T06:16:54.915Z,99815.03
2023-04-07T06:19:22.531Z,99814.72
2023-04-07T06:21:51.389Z,99816.22
2023-04-07T06:24:18.954Z,99819.28
2023-04-07T06:26:46.612Z,99816.13
2023-04-07T06:29:14.382Z,99823.28
2023-04-07T06:31:42.246Z,99806.56
2023-04-07T06:34:09.782Z,99823.25
2023-04-07T06:36:37.717Z,99811.56
2023-04-07T06:39:06.726Z,99810.06
2023-04-07T06:41:34.264Z,99805.09
2023-04-07T06:44:01.835Z,99815.56
2023-04-07T06:46:29.519Z,99811.34
2023-04-07T06:48:57.151Z,99816.47
2023-04-07T06:51:24.730Z,99812.94
2023-04-07T06:53:52.292Z,99813.31
2023-04-07T06:56:22.027Z,99819.78
2023-04-07T06:58:49.572Z,99811.63
2023-04-07T07:01:17.194Z,99818.72
2023-04-07T07:03:44.836Z,99815.44
2023-04-07T07:06:12.568Z,99819.22
2023-04-07T07:08:40.802Z,99805.66
2023-04-07T07:11:08.475Z,99813.38
2023-04-07T07:13:38.034Z,99807.31
2023-04-07T07:16:06.540Z,99813.34
2023-04-07T07:18:34.186Z,99817.50
2023-04-07T07:21:01.850Z,99817.50
2023-04-07T07:23:29.490Z,99813.25
2023-04-07T07:25:57.162Z,99815.91
2023-04-07T07:28:24.772Z,99819.28
2023-04-07T07:30:53.665Z,99817.28
2023-04-07T07:33:22.696Z,99814.16
2023-04-07T07:35:50.394Z,99805.91
2023-04-07T07:38:17.956Z,99812.25
2023-04-07T07:40:47.017Z,99803.31
2023-04-07T07:43:14.595Z,99806.16
2023-04-07T07:45:42.213Z,99807.22
2023-04-07T07:48:11.310Z,99811.81
2023-04-07T07:50:38.894Z,99821.47
2023-04-07T07:53:06.504Z,99820.47
2023-04-07T07:55:34.092Z,99821.25
2023-04-07T07:58:01.654Z,99823.84
2023-04-07T08:00:29.517Z,99822.09
2023-04-07T08:02:57.176Z,99815.94
2023-04-07T08:05:26.217Z,99815.94
2023-04-07T08:07:55.333Z,99811.34
2023-04-07T08:10:24.776Z,99818.41
2023-04-07T08:12:52.619Z,99817.56
2023-04-07T08:15:20.764Z,99827.31
2023-04-07T08:17:48.307Z,99821.00
2023-04-07T08:20:16.392Z,99826.25
2023-04-07T08:22:46.382Z,99831.38
2023-04-07T08:25:13.974Z,99833.84
2023-04-07T08:27:41.674Z,99835.44
2023-04-07T08:30:09.649Z,99831.31
2023-04-07T08:32:38.565Z,99837.56
2023-04-07T08:35:07.756Z,99834.91
2023-04-07T08:37:35.989Z,99838.34
2023-04-07T08:40:06.804Z,99835.88
2023-04-07T08:42:36.249Z,99843.09
2023-04-07T08:45:06.385Z,99840.53
2023-04-07T08:47:36.865Z,99841.00
2023-04-07T08:50:06.672Z,99848.03
2023-04-07T08:52:36.448Z,99845.16
2023-04-07T08:55:06.927Z,99847.09
2023-04-07T08:57:35.345Z,99849.09
2023-04-07T09:00:05.598Z,99850.06
2023-04-07T09:02:34.954Z,99847.47
2023-04-07T09:05:05.244Z,99844.38
2023-04-07T09:07:33.722Z,99846.03
2023-04-07T09:10:01.631Z,99851.97
2023-04-07T09:12:31.385Z,99854.91
2023-04-07T09:14:59.082Z,99848.78
2023-04-07T09:17:27.858Z,99843.16
2023-04-07T09:19:57.667Z,99845.75
2023-04-07T09:22:39.451Z,99855.38
2023-04-07T09:25:11.698Z,99856.94
2023-04-07T09:27:40.905Z,99849.34
2023-04-07T09:30:14.555Z,99852.84
2023-04-07T09:32:42.817Z,99850.28
2023-04-07T09:35:10.696Z,99850.34
2023-04-07T09:37:38.408Z,99857.50
2023-04-07T09:40:07.072Z,99853.16
2023-04-07T09:42:37.182Z,99856.66
2023-04-07T09:45:06.910Z,99859.47
2023-04-07T09:47:34.581Z,99868.06
2023-04-07T09:50:06.889Z,99857.78
2023-04-07T09:52:51.785Z,99864.06
2023-04-07T09:55:22.007Z,99861.41
2023-04-07T09:57:51.115Z,99864.75
2023-04-07T10:00:20.531Z,99857.59
2023-04-07T10:02:49.278Z,99857.53
2023-04-07T10:05:16.976Z,99865.56
2023-04-07T10:07:44.928Z,99867.78
2023-04-07T10:10:12.690Z,99868.44
2023-04-07T10:12:41.365Z,99866.31
2023-04-07T10:15:13.193Z,99859.81
2023-04-07T10:17:47.808Z,99864.91
2023-04-07T10:20:18.281Z,99875.53
2023-04-07T10:22:47.906Z,99866.00
2023-04-07T10:25:19.851Z,99862.91
2023-04-07T10:27:52.161Z,99864.06
2023-04-07T10:30:25.034Z,99872.72
2023-04-07T10:32:55.358Z,99859.06
2023-04-07T10:35:23.788Z,99860.09
2023-04-07T10:38:11.688Z,99855.84
2023-04-07T10:40:39.740Z,99865.66
2023-04-07T10:43:11.019Z,99867.56
2023-04-07T10:45:56.425Z,99863.28
2023-04-07T10:48:28.298Z,99860.44
2023-04-07T10:51:19.017Z,99855.53
2023-04-07T10:54:21.039Z,99852.38
2023-04-07T10:57:10.190Z,99850.88
2023-04-07T10:59:38.895Z,99848.13
2023-04-07T11:02:32.691Z,99856.72
2023-04-07T11:05:02.627Z,99855.78
2023-04-07T11:07:50.911Z,99860.16
2023-04-07T11:10:19.498Z,99860.47
2023-04-07T11:13:00.671Z,99847.44
2023-04-07T11:15:28.537Z,99846.72
2023-04-07T11:18:19.065Z,99849.41
2023-04-07T11:20:50.173Z,99855.53
2023-04-07T11:23:19.388Z,99854.38
2023-04-07T11:25:48.980Z,99848.34
2023-04-07T11:28:17.308Z,99851.03
2023-04-07T11:30:51.484Z,99847.44
2023-04-07T11:33:20.973Z,99865.59
2023-04-07T11:35:52.109Z,99849.94
2023-04-07T11:38:21.016Z,99857.84
2023-04-07T11:40:48.944Z,99862.16
2023-04-07T11:43:18.210Z,99865.59
2023-04-07T11:45:46.120Z,99853.63
2023-04-07T11:48:30.656Z,99865.78
2023-04-07T11:51:00.226Z,99862.25
2023-04-07T11:53:29.222Z,99862.34
2023-04-07T11:56:01.577Z,99863.34
2023-04-07T11:58:29.341Z,99862.59
2023-04-07T12:00:57.188Z,99864.50
2023-04-07T12:03:25.123Z,99862.00
2023-04-07T12:05:54.440Z,99857.06
2023-04-07T12:08:37.828Z,99860.75
2023-04-07T12:11:05.629Z,99864.97
2023-04-07T12:13:33.242Z,99861.81
2023-04-07T12:16:01.597Z,99856.94
2023-04-07T12:18:29.921Z,99851.56
2023-04-07T12:20:58.891Z,99858.72
2023-04-07T12:23:27.860Z,99853.69
2023-04-07T12:25:55.606Z,99858.72
2023-04-07T12:28:23.157Z,99855.53
2023-04-07T12:30:50.846Z,99853.81
2023-04-07T12:33:18.489Z,99851.22
2023-04-07T12:35:46.164Z,99856.38
2023-04-07T12:38:13.975Z,99845.13
2023-04-07T12:40:43.174Z,99852.94
2023-04-07T12:43:10.848Z,99860.72
2023-04-07T12:45:38.387Z,99869.38
2023-04-07T12:48:06.144Z,99861.56
2023-04-07T12:50:33.800Z,99861.56
2023-04-07T12:53:03.485Z,99861.59
2023-04-07T12:55:33.315Z,99864.19
2023-04-07T12:58:02.310Z,99877.19
2023-04-07T13:00:30.454Z,99872.84
2023-04-07T13:02:58.484Z,99871.97
2023-04-07T13:05:26.257Z,99873.72
2023-04-07T13:07:53.801Z,99875.44
2023-04-07T13:10:21.410Z,99878.44
2023-04-07T13:12:49.293Z,99887.00
2023-04-07T13:15:18.402Z,99887.28
2023-04-07T13:17:46.399Z,99880.34
2023-04-07T13:20:19.354Z,99878.88
2023-04-07T13:22:49.227Z,99884.50
2023-04-07T13:25:23.216Z,99879.47
2023-04-07T13:27:50.808Z,99888.22
2023-04-07T13:30:21.492Z,99888.97
2023-04-07T13:32:50.441Z,99877.75
2023-04-07T13:35:18.189Z,99878.72
2023-04-07T13:37:46.035Z,99886.59
2023-04-07T13:40:13.902Z,99882.94
2023-04-07T13:42:41.568Z,99886.56
2023-04-07T13:45:10.175Z,99888.78
2023-04-07T13:47:39.094Z,99885.66
2023-04-07T13:50:07.630Z,99888.38
2023-04-07T13:52:35.788Z,99880.28
2023-04-07T13:55:04.351Z,99891.25
2023-04-07T13:57:32.069Z,99889.25
2023-04-07T13:59:59.898Z,99884.09
2023-04-07T14:02:28.466Z,99883.25
2023-04-07T14:04:57.788Z,99880.66
2023-04-07T14:07:25.571Z,99878.84
2023-04-07T14:09:54.427Z,99882.34
2023-04-07T14:12:23.468Z,99883.22
2023-04-07T14:14:52.358Z,99880.56
2023-04-07T14:17:19.967Z,99879.66
2023-04-07T14:19:49.080Z,99874.47
2023-04-07T14:22:18.275Z,99870.22
2023-04-07T14:24:46.217Z,99873.69
2023-04-07T14:27:14.135Z,99881.44
2023-04-07T14:29:41.707Z,99884.22
2023-04-07T14:32:09.320Z,99869.38
2023-04-07T14:34:37.169Z,99879.69
2023-04-07T14:37:04.872Z,99878.88
2023-04-07T14:39:34.183Z,99874.59
2023-04-07T14:42:01.793Z,99875.44
2023-04-07T14:44:31.061Z,99875.31
2023-04-07T14:46:58.653Z,99879.59
2023-04-07T14:49:28.317Z,99878.81
2023-04-07T14:51:56.043Z,99878.78
2023-04-07T14:54:24.337Z,99877.03
2023-04-07T14:56:53.261Z,99882.22
2023-04-07T14:59:20.833Z,99875.22
2023-04-07T15:01:48.583Z,99878.69
2023-04-07T15:04:16.438Z,99874.31
2023-04-07T15:06:46.219Z,99875.03
2023-04-07T15:09:14.972Z,99876.56
2023-04-07T15:11:42.525Z,99879.78
2023-04-07T15:14:11.400Z,99881.47
2023-04-07T15:16:39.001Z,99885.78
2023-04-07T15:19:06.757Z,99884.00
2023-04-07T15:21:34.311Z,99896.03
2023-04-07T15:24:01.838Z,99894.34
2023-04-07T15:26:29.478Z,99895.88
2023-04-07T15:28:57.003Z,99900.09
2023-04-07T15:31:27.897Z,99900.91
2023-04-07T15:33:55.517Z,99906.03
2023-04-07T15:36:23.158Z,99905.09
2023-04-07T15:38:50.781Z,99908.44
2023-04-07T15:41:18.355Z,99906.59
2023-04-07T15:43:45.936Z,99911.69
2023-04-07T15:46:13.608Z,99910.78
2023-04-07T15:48:42.494Z,99909.13
2023-04-07T15:51:10.089Z,99915.09
2023-04-07T15:53:37.686Z,99921.13
2023-04-07T15:56:05.532Z,99919.38
2023-04-07T15:58:33.094Z,99925.50
2023-04-07T16:01:00.974Z,99925.88
2023-04-07T16:03:29.005Z,99925.63
2023-04-07T16:05:58.139Z,99935.66
2023-04-07T16:08:25.900Z,99936.03
2023-04-07T16:10:53.440Z,99934.75
2023-04-07T16:13:21.092Z,99933.66
2023-04-07T16:15:48.713Z,99934.56
2023-04-07T16:18:16.601Z,99937.53
2023-04-07T16:20:44.206Z,99949.72
2023-04-07T16:23:13.443Z,99945.34
2023-04-07T16:25:41.025Z,99946.78
2023-04-07T16:28:08.577Z,99950.22
2023-04-07T16:30:36.266Z,99960.09
2023-04-07T16:33:03.890Z,99969.63
2023-04-07T16:35:31.951Z,99968.41
2023-04-07T16:38:03.812Z,99974.16
2023-04-07T16:40:32.809Z,99978.00
2023-04-07T16:43:00.518Z,99981.91
2023-04-07T16:45:28.146Z,99980.63
2023-04-07T16:47:55.935Z,99976.63
2023-04-07T16:50:23.697Z,99982.84
2023-04-07T16:52:51.426Z,99983.47
2023-04-07T16:55:19.135Z,99977.06
2023-04-07T16:57:49.043Z,99987.41
2023-04-07T17:00:17.192Z,99979.84
2023-04-07T17:02:44.965Z,99977.19
2023-04-07T17:05:12.742Z,99989.34
2023-04-07T17:07:40.338Z,99984.00
2023-04-07T17:10:10.517Z,99988.31
2023-04-07T17:12:38.110Z,99994.47
2023-04-07T17:15:07.978Z,100006.25
2023-04-07T17:17:35.717Z,100007.97
2023-04-07T17:20:04.693Z,100008.31
2023-04-07T17:22:32.319Z,100012.75
2023-04-07T17:24:59.885Z,100019.16
2023-04-07T17:27:28.134Z,100024.13
2023-04-07T17:29:55.864Z,100029.06
2023-04-07T17:32:24.784Z,100021.06
2023-04-07T17:34:52.402Z,100024.28
2023-04-07T17:37:20.040Z,100023.69
2023-04-07T17:39:47.897Z,100030.56
2023-04-07T17:42:15.547Z,100028.00
2023-04-07T17:44:43.391Z,100033.56
2023-04-07T17:47:10.971Z,100040.22
2023-04-07T17:49:40.485Z,100045.19
2023-04-07T17:52:08.118Z,100046.25
2023-04-07T17:54:35.702Z,100049.69
2023-04-07T17:57:03.597Z,100047.78
2023-04-07T17:59:31.151Z,100060.69
2023-04-07T18:01:58.972Z,100058.31
2023-04-07T18:04:26.982Z,100066.03
2023-04-07T18:06:55.873Z,100068.41
2023-04-07T18:09:23.468Z,100072.69
2023-04-07T18:11:51.013Z,100080.41
2023-04-07T18:14:18.543Z,100075.25
2023-04-07T18:16:46.051Z,100076.91
2023-04-07T18:19:14.324Z,100079.59
2023-04-07T18:21:41.826Z,100081.94
2023-04-07T18:24:11.315Z,100082.75
2023-04-07T18:26:38.853Z,100082.75
2023-04-07T18:29:09.504Z,100085.13
2023-04-07T18:31:37.819Z,100091.97
2023-04-07T18:34:05.353Z,100099.63
2023-04-07T18:36:32.888Z,100097.00
2023-04-07T18:39:00.480Z,100107.28
2023-04-07T18:41:29.402Z,100108.03
2023-04-07T18:43:57.028Z,100105.25
2023-04-07T18:46:24.724Z,100110.38
2023-04-07T18:48:52.349Z,100113.91
2023-04-07T18:51:20.024Z,100115.53
2023-04-07T18:53:47.942Z,100119.09
2023-04-07T18:56:15.746Z,100120.84
2023-04-07T18:58:45.727Z,100128.66
2023-04-07T19:01:13.938Z,100128.63
2023-04-07T19:03:42.413Z,100137.28
2023-04-07T19:06:10.413Z,100131.38
2023-04-07T19:08:38.014Z,100144.28
2023-04-07T19:11:05.590Z,100142.53
2023-04-07T19:13:33.313Z,100143.38
2023-04-07T19:16:03.108Z,100151.13
2023-04-07T19:18:31.722Z,100141.63
2023-04-07T19:20:59.391Z,100153.59
2023-04-07T19:23:27.053Z,100164.63
2023-04-07T19:25:54.864Z,100157.56
2023-04-07T19:28:22.802Z,100166.81
2023-04-07T19:30:50.399Z,100164.94
2023-04-07T19:33:19.324Z,100169.97
2023-04-07T19:35:46.971Z,100173.41
2023-04-07T19:38:14.538Z,100171.69
2023-04-07T19:40:42.428Z,100177.78
2023-04-07T19:43:09.951Z,100180.28
2023-04-07T19:45:37.590Z,100180.34
2023-04-07T19:48:05.195Z,100180.28
2023-04-07T19:50:36.545Z,100182.06
2023-04-07T19:53:04.078Z,100191.50
2023-04-07T19:55:31.642Z,100192.38
2023-04-07T19:57:59.177Z,100191.44
2023-04-07T20:00:27.220Z,100190.53
2023-04-07T20:02:54.903Z,100190.53
2023-04-07T20:05:22.770Z,100188.69
2023-04-07T20:07:52.166Z,100186.88
2023-04-07T20:10:19.691Z,100197.09
2023-04-07T20:12:47.217Z,100190.22
2023-04-07T20:15:15.190Z,100188.44
2023-04-07T20:17:42.794Z,100193.56
2023-04-07T20:20:11.314Z,100191.09
2023-04-07T20:22:38.920Z,100198.94
2023-04-07T20:25:09.499Z,100202.41
2023-04-07T20:27:37.395Z,100206.75
2023-04-07T20:30:05.355Z,100204.25
2023-04-07T20:32:32.925Z,100207.72
2023-04-07T20:35:00.472Z,100200.00
2023-04-07T20:37:28.049Z,100205.13
2023-04-07T20:39:55.936Z,100205.03
2023-04-07T20:42:24.880Z,100209.28
2023-04-07T20:44:53.508Z,100210.91
2023-04-07T20:47:21.130Z,100210.88
2023-04-07T20:49:48.764Z,100209.16
2023-04-07T20:52:16.565Z,100209.91
2023-04-07T20:54:44.832Z,100212.19
2023-04-07T20:57:12.451Z,100217.19
2023-04-07T20:59:41.346Z,100215.44
2023-04-07T21:02:09.268Z,100217.19
2023-04-07T21:04:36.936Z,100217.13
2023-04-07T21:07:04.487Z,100215.41
2023-04-07T21:09:32.042Z,100218.91
2023-04-07T21:12:01.826Z,100222.59
2023-04-07T21:14:29.532Z,100221.63
2023-04-07T21:16:58.421Z,100220.59
2023-04-07T21:19:26.089Z,100217.97
2023-04-07T21:21:53.720Z,100221.44
2023-04-07T21:24:22.887Z,100220.69
2023-04-07T21:26:50.708Z,100219.00
2023-04-07T21:29:18.257Z,100221.56
2023-04-07T21:31:45.907Z,100230.88
2023-04-07T21:34:14.862Z,100218.75
2023-04-07T21:36:42.577Z,100223.81
2023-04-07T21:39:10.594Z,100223.00
2023-04-07T21:41:40.758Z,100228.88
2023-04-07T21:44:11.097Z,100227.88
2023-04-07T21:46:38.709Z,100225.22
2023-04-07T21:49:06.355Z,100233.56
2023-04-07T21:51:35.214Z,100237.06
2023-04-07T21:54:02.753Z,100221.56
2023-04-07T21:56:30.319Z,100221.53
2023-04-07T21:58:57.915Z,100224.94
2023-04-07T22:01:25.498Z,100233.38
2023-04-07T22:03:53.159Z,100238.53
2023-04-07T22:06:20.775Z,100247.09
2023-04-07T22:11:22.315Z,100240.06
2023-04-07T22:13:49.912Z,100240.94
2023-04-07T22:16:17.546Z,100234.91
2023-04-07T22:18:45.235Z,100238.34
2023-04-07T22:21:12.782Z,100239.19
2023-04-07T22:23:40.388Z,100238.34
2023-04-07T22:26:09.318Z,100249.56
2023-04-07T22:28:37.255Z,100258.78
2023-04-07T22:31:05.098Z,100250.16
2023-04-07T22:33:32.662Z,100252.78
2023-04-07T22:36:00.241Z,100255.31
2023-04-07T22:38:27.810Z,100263.88
2023-04-07T22:40:55.331Z,100268.03
2023-04-07T22:43:24.237Z,100258.50
2023-04-07T22:45:51.992Z,100266.31
2023-04-07T22:48:19.603Z,100269.69
2023-04-07T22:50:47.194Z,100263.66
2023-04-07T22:53:14.721Z,100262.78
2023-04-07T22:55:42.302Z,100271.31
2023-04-07T22:58:09.885Z,100262.59
2023-04-07T23:00:38.855Z,100264.19
2023-04-07T23:03:06.606Z,100265.84
2023-04-07T23:05:34.291Z,100266.69
2023-04-07T23:08:01.857Z,100264.81
2023-04-07T23:10:30.997Z,100269.97
2023-04-07T23:12:59.385Z,100264.81
2023-04-07T23:15:27.177Z,100265.66
2023-04-07T23:17:56.468Z,100265.50
2023-04-07T23:20:24.045Z,100273.84
2023-04-07T23:22:51.618Z,100256.78
2023-04-07T23:25:19.349Z,100265.34
2023-04-07T23:27:46.943Z,100267.00
2023-04-07T23:30:14.656Z,100264.53
2023-04-07T23:32:42.411Z,100266.19
2023-04-07T23:35:11.830Z,100272.97
2023-04-07T23:37:39.597Z,100269.47
2023-04-07T23:40:08.671Z,100276.34
2023-04-07T23:42:36.747Z,100283.28
2023-04-07T23:45:04.635Z,100278.88
2023-04-07T23:47:32.190Z,100275.41
2023-04-07T23:50:00.173Z,100286.56
2023-04-07T23:52:29.196Z,100284.69
2023-04-07T23:54:56.720Z,100286.25
2023-04-07T23:57:24.225Z,100287.63
2023-04-07T23:59:51.766Z,100285.84
